| time (UTC) | temp F | wind direction | speed MPH | gust MPH | rain 1hr in | rain 24hr in | rain mn in | humidity % | barometer mb |
| 20260505210116 | 71 | 149 | 10.0 | 14.0 | 0.00 | 0.33 | 0.17 | 47 | 1012.6 |
| 20260505204115 | 72 | 164 | 8.0 | 15.0 | 0.00 | 0.33 | 0.17 | 49 | 1012.6 |
| 20260505203115 | 69 | 139 | 8.0 | 17.0 | 0.00 | 0.33 | 0.17 | 50 | 1012.1 |
| 20260505202116 | 71 | 122 | 7.0 | 16.0 | 0.00 | 0.33 | 0.17 | 50 | 1012.2 |
| 20260505200115 | 70 | 150 | 5.0 | 17.0 | 0.00 | 0.33 | 0.17 | 49 | 1012.3 |
| 20260505195115 | 68 | 92 | 3.0 | 13.0 | 0.00 | 0.33 | 0.17 | 56 | 1012.1 |
| 20260505194115 | 68 | 139 | 4.0 | 9.0 | 0.00 | 0.33 | 0.17 | 58 | 1012.3 |
| 20260505193145 | 68 | 116 | 3.0 | 10.0 | 0.00 | 0.33 | 0.17 | 57 | 1012.3 |
| 20260505192115 | 67 | 135 | 4.0 | 10.0 | 0.00 | 0.33 | 0.17 | 60 | 1012.4 |
| 20260505191144 | 65 | 134 | 4.0 | 11.0 | 0.00 | 0.33 | 0.17 | 63 | 1012.3 |
| 20260505185115 | 67 | 143 | 2.0 | 10.0 | 0.00 | 0.33 | 0.17 | 62 | 1012.8 |
| 20260505184114 | 67 | 71 | 4.0 | 9.0 | 0.00 | 0.33 | 0.17 | 66 | 1013.1 |
| 20260505183114 | 65 | 101 | 5.0 | 7.0 | 0.00 | 0.33 | 0.17 | 67 | 1012.8 |
| 20260505182114 | 65 | 85 | 5.0 | 8.0 | 0.00 | 0.33 | 0.17 | 67 | 1012.9 |
| 20260505181114 | 63 | 131 | 4.0 | 8.0 | 0.00 | 0.33 | 0.17 | 68 | 1012.7 |
| 20260505180143 | 64 | 131 | 3.0 | 8.0 | 0.00 | 0.33 | 0.17 | 66 | 1012.7 |
| 20260505175113 | 64 | 126 | 8.0 | 8.0 | 0.00 | 0.33 | 0.17 | 71 | 1012.8 |
| 20260505174143 | 63 | 76 | 6.0 | 10.0 | 0.00 | 0.33 | 0.17 | 71 | 1012.7 |
| 20260505173113 | 63 | 51 | 2.0 | 8.0 | 0.00 | 0.33 | 0.17 | 70 | 1012.7 |
| 20260505172113 | 63 | 116 | 5.0 | 8.0 | 0.00 | 0.33 | 0.17 | 71 | 1012.7 |
| 20260505171143 | 63 | 172 | 1.0 | 8.0 | 0.00 | 0.33 | 0.17 | 73 | 1012.7 |
| 20260505170143 | 63 | 149 | 1.0 | 8.0 | 0.00 | 0.33 | 0.17 | 75 | 1012.7 |
| 20260505165113 | 60 | 120 | 2.0 | 7.0 | 0.00 | 0.33 | 0.17 | 77 | 1012.3 |
| 20260505164143 | 60 | 118 | 3.0 | 10.0 | 0.00 | 0.33 | 0.17 | 80 | 1012.0 |
| 20260505163112 | 60 | 97 | 1.0 | 7.0 | 0.00 | 0.33 | 0.17 | 81 | 1012.0 |
| 20260505162112 | 60 | 125 | 3.0 | 8.0 | 0.00 | 0.33 | 0.17 | 81 | 1012.0 |
| 20260505161142 | 60 | 112 | 8.0 | 8.0 | 0.00 | 0.33 | 0.17 | 80 | 1011.9 |
| 20260505160112 | 60 | 110 | 3.0 | 6.0 | 0.00 | 0.33 | 0.17 | 82 | 1012.0 |
| 20260505152141 | 59 | 125 | 3.0 | 7.0 | 0.00 | 0.33 | 0.17 | 83 | 1011.8 |
| 20260505151141 | 59 | 127 | 0.0 | 5.0 | 0.00 | 0.33 | 0.17 | 84 | 1011.7 |
| 20260505150111 | 59 | 143 | 2.0 | 6.0 | 0.00 | 0.33 | 0.17 | 86 | 1011.7 |
| 20260505130140 | 57 | 182 | 0.0 | 0.0 | 0.00 | 0.33 | 0.17 | 92 | 1010.5 |
| 20260505123139 | 56 | 182 | 0.0 | 0.0 | 0.00 | 0.33 | 0.17 | 91 | 1011.0 |
| 20260505121139 | 56 | 182 | 0.0 | 0.0 | 0.00 | 0.33 | 0.17 | 91 | 1010.9 |
| 20260505120139 | 56 | 182 | 0.0 | 0.0 | 0.00 | 0.33 | 0.17 | 92 | 1010.9 |
| 20260505115138 | 56 | 182 | 0.0 | 0.0 | 0.01 | 0.33 | 0.17 | 92 | 1010.9 |
| 20260505114108 | 56 | 182 | 0.0 | 0.0 | 0.01 | 0.33 | 0.17 | 92 | 1011.3 |
| 20260505113138 | 56 | 182 | 0.0 | 0.0 | 0.01 | 0.33 | 0.17 | 92 | 1011.3 |
| 20260505111108 | 56 | 182 | 0.0 | 1.0 | 0.02 | 0.33 | 0.17 | 92 | 1011.3 |
| 20260505110138 | 57 | 182 | 0.0 | 3.0 | 0.02 | 0.33 | 0.17 | 93 | 1011.3 |
| 20260505102137 | 57 | 82 | 0.0 | 0.0 | 0.01 | 0.31 | 0.15 | 93 | 1012.6 |
| 20260505101137 | 57 | 82 | 0.0 | 0.0 | 0.02 | 0.31 | 0.15 | 93 | 1012.5 |
| 20260505100137 | 57 | 82 | 0.0 | 0.0 | 0.04 | 0.31 | 0.15 | 93 | 1012.5 |
| 20260505094137 | 56 | 82 | 0.0 | 0.0 | 0.04 | 0.30 | 0.14 | 93 | 1012.6 |
| 20260505093137 | 56 | 82 | 0.0 | 0.0 | 0.05 | 0.30 | 0.14 | 93 | 1012.6 |
| 20260505091125 | 56 | 82 | 0.0 | 2.0 | 0.06 | 0.29 | 0.13 | 93 | 1013.1 |
| 20260505090124 | 57 | 82 | 0.0 | 4.0 | 0.04 | 0.27 | 0.11 | 92 | 1013.4 |
| 20260505085123 | 56 | 93 | 4.0 | 8.0 | 0.04 | 0.26 | 0.10 | 92 | 1013.7 |
| 20260505084123 | 57 | 105 | 7.0 | 10.0 | 0.05 | 0.26 | 0.10 | 92 | 1014.5 |
| 20260505083123 | 57 | 116 | 6.0 | 10.0 | 0.06 | 0.25 | 0.09 | 92 | 1014.5 |
| 20260505082123 | 57 | 103 | 4.0 | 8.0 | 0.07 | 0.25 | 0.09 | 92 | 1014.3 |
| 20260505081123 | 57 | 74 | 2.0 | 7.0 | 0.06 | 0.23 | 0.07 | 92 | 1014.9 |
| 20260505075123 | 57 | 82 | 4.0 | 7.0 | 0.07 | 0.22 | 0.06 | 92 | 1015.0 |
| 20260505074123 | 57 | 92 | 6.0 | 7.0 | 0.07 | 0.21 | 0.05 | 92 | 1015.3 |
| 20260505073123 | 57 | 62 | 4.0 | 6.0 | 0.06 | 0.19 | 0.03 | 92 | 1015.3 |
| 20260505072122 | 57 | 76 | 2.0 | 5.0 | 0.06 | 0.18 | 0.02 | 92 | 1015.1 |
| 20260505071122 | 57 | 81 | 2.0 | 6.0 | 0.07 | 0.17 | 0.01 | 92 | 1015.3 |
| 20260505070122 | 57 | 84 | 0.0 | 6.0 | 0.06 | 0.16 | 0.00 | 91 | 1015.3 |
| 20260505065122 | 57 | 72 | 4.0 | 5.0 | 0.06 | 0.15 | 0.15 | 91 | 1015.1 |
| 20260505064122 | 57 | 74 | 1.0 | 5.0 | 0.05 | 0.14 | 0.14 | 91 | 1015.4 |
| 20260505063122 | 57 | 74 | 2.0 | 4.0 | 0.04 | 0.13 | 0.13 | 90 | 1015.4 |
| 20260505062121 | 57 | 105 | 0.0 | 4.0 | 0.03 | 0.12 | 0.12 | 90 | 1015.4 |
| 20260505061121 | 57 | 183 | 0.0 | 3.0 | 0.01 | 0.10 | 0.10 | 90 | 1015.3 |
| 20260505060121 | 57 | 183 | 0.0 | 0.0 | 0.02 | 0.10 | 0.10 | 90 | 1015.3 |
| 20260505055121 | 57 | 183 | 0.0 | 0.0 | 0.01 | 0.09 | 0.09 | 90 | 1014.7 |
| 20260505054121 | 57 | 183 | 0.0 | 0.0 | 0.02 | 0.09 | 0.09 | 89 | 1014.9 |
| 20260505053121 | 57 | 183 | 0.0 | 2.0 | 0.02 | 0.09 | 0.09 | 89 | 1014.9 |
| 20260505052121 | 57 | 183 | 0.0 | 3.0 | 0.03 | 0.09 | 0.09 | 89 | 1014.5 |
| 20260505051121 | 57 | 183 | 0.0 | 4.0 | 0.05 | 0.09 | 0.09 | 88 | 1014.4 |
| 20260505050121 | 57 | 98 | 0.0 | 8.0 | 0.04 | 0.08 | 0.08 | 87 | 1014.4 |
| 20260505040120 | 58 | 107 | 0.0 | 7.0 | 0.01 | 0.04 | 0.04 | 78 | 1014.4 |
| 20260505035120 | 58 | 184 | 0.0 | 5.0 | 0.01 | 0.04 | 0.04 | 80 | 1014.0 |
| 20260505034120 | 58 | 185 | 0.0 | 6.0 | 0.01 | 0.04 | 0.04 | 81 | 1013.4 |
| 20260505033120 | 58 | 149 | 0.0 | 4.0 | 0.01 | 0.04 | 0.04 | 83 | 1013.4 |
| 20260505032120 | 57 | 140 | 0.0 | 8.0 | 0.00 | 0.03 | 0.03 | 82 | 1013.0 |
| 20260505025119 | 58 | 101 | 1.0 | 7.0 | 0.01 | 0.03 | 0.03 | 76 | 1013.1 |
| 20260505024119 | 58 | 108 | 6.0 | 14.0 | 0.02 | 0.03 | 0.03 | 75 | 1012.5 |
| 20260505023119 | 57 | 76 | 3.0 | 13.0 | 0.03 | 0.03 | 0.03 | 76 | 1012.5 |
| 20260505022119 | 57 | 57 | 5.0 | 13.0 | 0.03 | 0.03 | 0.03 | 76 | 1012.9 |
| 20260505021118 | 58 | 51 | 7.0 | 14.0 | 0.03 | 0.03 | 0.03 | 74 | 1013.5 |
| 20260505020118 | 58 | 68 | 2.0 | 9.0 | 0.02 | 0.02 | 0.02 | 73 | 1013.5 |
| 20260505015118 | 59 | 85 | 2.0 | 6.0 | 0.02 | 0.02 | 0.02 | 74 | 1013.3 |
| 20260505014118 | 60 | 90 | 4.0 | 10.0 | 0.01 | 0.01 | 0.01 | 65 | 1013.4 |
| 20260505012118 | 64 | 96 | 12.0 | 20.0 | 0.00 | 0.00 | 0.00 | 51 | 1013.2 |
| 20260505011118 | 65 | 91 | 12.0 | 17.0 | 0.00 | 0.00 | 0.00 | 48 | 1013.2 |
| 20260505010148 | 66 | 77 | 1.0 | 17.0 | 0.00 | 0.00 | 0.00 | 44 | 1013.3 |
| 20260505005118 | 67 | 86 | 9.0 | 12.0 | 0.00 | 0.00 | 0.00 | 44 | 1012.9 |
| 20260505004118 | 67 | 117 | 4.0 | 10.0 | 0.00 | 0.00 | 0.00 | 43 | 1012.9 |
| 20260505003117 | 68 | 129 | 5.0 | 13.0 | 0.00 | 0.00 | 0.00 | 44 | 1013.2 |
| 20260505002117 | 68 | 130 | 3.0 | 12.0 | 0.00 | 0.00 | 0.00 | 45 | 1012.9 |
| 20260505001117 | 68 | 136 | 8.0 | 11.0 | 0.00 | 0.00 | 0.00 | 44 | 1012.5 |
| 20260505000117 | 68 | 87 | 8.0 | 9.0 | 0.00 | 0.00 | 0.00 | 44 | 1012.5 |
| 20260504235116 | 67 | 131 | 2.0 | 11.0 | 0.00 | 0.00 | 0.00 | 47 | 1012.4 |
| 20260504234117 | 67 | 120 | 4.0 | 9.0 | 0.00 | 0.00 | 0.00 | 45 | 1012.7 |
| 20260504233116 | 67 | 114 | 7.0 | 15.0 | 0.00 | 0.00 | 0.00 | 46 | 1012.7 |
| 20260504232116 | 67 | 130 | 11.0 | 15.0 | 0.00 | 0.00 | 0.00 | 44 | 1013.2 |
| 20260504231116 | 71 | 141 | 4.0 | 14.0 | 0.00 | 0.00 | 0.00 | 38 | 1013.4 |
| 20260504230116 | 73 | 134 | 6.0 | 9.0 | 0.00 | 0.00 | 0.00 | 28 | 1013.5 |
| 20260504225116 | 74 | 178 | 2.0 | 12.0 | 0.00 | 0.00 | 0.00 | 28 | 1013.7 |
| 20260504224116 | 74 | 143 | 3.0 | 17.0 | 0.00 | 0.00 | 0.00 | 26 | 1013.7 |
| 20260504223115 | 75 | 160 | 10.0 | 19.0 | 0.00 | 0.00 | 0.00 | 25 | 1013.7 |
| 20260504222116 | 75 | 205 | 7.0 | 12.0 | 0.00 | 0.00 | 0.00 | 24 | 1013.6 |
| 20260504221115 | 75 | 186 | 7.0 | 14.0 | 0.00 | 0.00 | 0.00 | 25 | 1013.8 |
| 20260504220115 | 76 | 168 | 6.0 | 14.0 | 0.00 | 0.00 | 0.00 | 25 | 1014.0 |
| 20260504215115 | 76 | 195 | 7.0 | 11.0 | 0.00 | 0.00 | 0.00 | 23 | 1014.0 |
| 20260504214115 | 76 | 146 | 5.0 | 10.0 | 0.00 | 0.00 | 0.00 | 24 | 1014.0 |
| 20260504213115 | 76 | 174 | 3.0 | 10.0 | 0.00 | 0.00 | 0.00 | 25 | 1014.1 |
| 20260504212115 | 76 | 170 | 3.0 | 12.0 | 0.00 | 0.00 | 0.00 | 25 | 1014.5 |
| 20260504211144 | 76 | 163 | 7.0 | 11.0 | 0.00 | 0.00 | 0.00 | 26 | 1014.2 |